createdAt,value
2018-08-31T00:01:13.334Z,65.90
2018-08-31T00:05:55.441Z,65.89
2018-08-31T00:10:39.264Z,65.17
2018-08-31T00:13:08.555Z,65.14
2018-08-31T00:15:37.148Z,65.99
2018-08-31T00:18:05.387Z,66.09
2018-08-31T00:20:33.643Z,66.61
2018-08-31T00:23:01.811Z,66.85
2018-08-31T00:26:09.815Z,66.83
2018-08-31T00:28:49.985Z,66.74
2018-08-31T00:33:36.312Z,66.19
2018-08-31T00:40:25.882Z,65.79
2018-08-31T00:45:14.047Z,66.71
2018-08-31T00:47:42.735Z,66.71
2018-08-31T00:50:10.958Z,66.57
2018-08-31T00:52:39.156Z,66.53
2018-08-31T00:55:07.666Z,67.47
2018-08-31T00:57:35.843Z,66.80
2018-08-31T01:00:04.050Z,67.60
2018-08-31T01:02:32.276Z,66.78
2018-08-31T01:05:00.483Z,66.94
2018-08-31T01:07:28.739Z,66.78
2018-08-31T01:09:56.924Z,67.64
2018-08-31T01:12:25.190Z,67.81
2018-08-31T01:14:53.359Z,66.79
2018-08-31T01:17:21.554Z,67.80
2018-08-31T01:19:49.744Z,68.01
2018-08-31T01:22:17.908Z,67.15
2018-08-31T01:24:46.128Z,67.04
2018-08-31T01:27:14.299Z,66.91
2018-08-31T01:29:42.531Z,66.91
2018-08-31T01:32:11.211Z,66.78
2018-08-31T01:34:39.720Z,66.58
2018-08-31T01:37:07.893Z,66.39
2018-08-31T01:39:36.127Z,66.14
2018-08-31T01:42:04.407Z,66.27
2018-08-31T01:44:32.811Z,66.29
2018-08-31T01:47:01.026Z,66.72
2018-08-31T01:49:29.241Z,67.16
2018-08-31T01:51:57.454Z,66.19
2018-08-31T01:54:25.667Z,67.20
2018-08-31T01:56:53.931Z,66.53
2018-08-31T01:59:22.163Z,66.36
2018-08-31T02:01:50.320Z,66.91
2018-08-31T02:04:18.627Z,66.27
2018-08-31T02:06:46.750Z,65.54
2018-08-31T02:09:18.403Z,66.11
2018-08-31T02:11:47.112Z,66.54
2018-08-31T02:14:15.284Z,67.40
2018-08-31T02:16:43.484Z,67.47
2018-08-31T02:19:11.651Z,67.45
2018-08-31T02:21:39.854Z,67.43
2018-08-31T02:24:08.282Z,67.49
2018-08-31T02:26:36.755Z,66.56
2018-08-31T02:29:05.061Z,66.21
2018-08-31T02:31:33.222Z,66.43
2018-08-31T02:34:01.430Z,66.31
2018-08-31T02:36:29.816Z,67.15
2018-08-31T02:38:58.044Z,66.97
2018-08-31T02:41:26.214Z,66.86
2018-08-31T02:43:54.451Z,66.18
2018-08-31T02:46:23.261Z,66.21
2018-08-31T02:48:52.263Z,67.13
2018-08-31T02:51:21.046Z,67.06
2018-08-31T02:53:49.206Z,67.59
2018-08-31T02:56:17.430Z,67.06
2018-08-31T02:58:45.612Z,67.85
2018-08-31T03:01:13.798Z,67.88
2018-08-31T03:03:42.134Z,67.43
2018-08-31T03:06:10.398Z,67.11
2018-08-31T03:08:38.585Z,67.34
2018-08-31T03:11:06.887Z,67.73
2018-08-31T03:13:35.054Z,67.66
2018-08-31T03:16:03.267Z,67.33
2018-08-31T03:18:31.507Z,67.48
2018-08-31T03:20:59.775Z,67.41
2018-08-31T03:23:27.967Z,67.23
2018-08-31T03:25:56.155Z,67.05
2018-08-31T03:28:24.338Z,68.02
2018-08-31T03:30:52.710Z,68.25
2018-08-31T03:33:20.870Z,68.07
2018-08-31T03:35:49.059Z,67.26
2018-08-31T03:38:17.236Z,68.85
2018-08-31T03:40:45.473Z,68.53
2018-08-31T03:43:13.683Z,67.94
2018-08-31T03:45:41.890Z,67.89
2018-08-31T03:48:10.171Z,67.66
2018-08-31T03:50:38.345Z,68.12
2018-08-31T03:53:06.570Z,68.33
2018-08-31T03:55:34.834Z,67.88
2018-08-31T03:58:03.031Z,68.73
2018-08-31T04:00:31.249Z,68.43
2018-08-31T04:02:59.396Z,68.30
2018-08-31T04:05:27.612Z,68.33
2018-08-31T04:07:55.854Z,68.50
2018-08-31T04:10:24.037Z,68.43
2018-08-31T04:12:52.242Z,68.25
2018-08-31T04:15:20.427Z,69.25
2018-08-31T04:17:48.667Z,69.11
2018-08-31T04:20:16.911Z,68.41
2018-08-31T04:22:45.105Z,68.77
2018-08-31T04:25:13.271Z,68.54
2018-08-31T04:27:41.483Z,69.09
2018-08-31T04:30:09.726Z,69.19
2018-08-31T04:32:37.911Z,68.75
2018-08-31T04:35:06.092Z,69.27
2018-08-31T04:37:34.283Z,68.74
2018-08-31T04:40:02.547Z,69.07
2018-08-31T04:42:30.726Z,68.40
2018-08-31T04:44:59.163Z,68.81
2018-08-31T04:47:27.347Z,68.67
2018-08-31T04:49:55.548Z,68.64
2018-08-31T04:52:23.829Z,69.78
2018-08-31T04:54:52.087Z,68.73
2018-08-31T04:57:20.292Z,68.82
2018-08-31T04:59:48.443Z,69.54
2018-08-31T05:02:16.635Z,68.67
2018-08-31T05:04:44.992Z,69.71
2018-08-31T05:07:13.291Z,68.89
2018-08-31T05:09:41.478Z,69.74
2018-08-31T05:12:09.701Z,68.70
2018-08-31T05:14:37.883Z,69.29
2018-08-31T05:17:06.090Z,68.51
2018-08-31T05:19:35.266Z,68.92
2018-08-31T05:22:03.564Z,69.90
2018-08-31T05:24:31.771Z,69.71
2018-08-31T05:26:59.937Z,69.00
2018-08-31T05:29:28.110Z,69.61
2018-08-31T05:31:56.295Z,69.59
2018-08-31T05:34:24.547Z,69.67
2018-08-31T05:36:52.755Z,69.03
2018-08-31T05:39:20.940Z,69.17
2018-08-31T05:41:49.146Z,70.37
2018-08-31T05:44:17.407Z,69.31
2018-08-31T05:46:45.662Z,69.96
2018-08-31T05:49:13.815Z,68.86
2018-08-31T05:51:42.022Z,69.80
2018-08-31T05:54:10.267Z,68.81
2018-08-31T05:56:38.580Z,69.08
2018-08-31T05:59:06.827Z,68.47
2018-08-31T06:01:35.087Z,68.08
2018-08-31T06:04:03.263Z,68.48
2018-08-31T06:06:31.519Z,68.60
2018-08-31T06:08:59.754Z,68.33
2018-08-31T06:11:28.042Z,68.52
2018-08-31T06:13:56.271Z,69.36
2018-08-31T06:16:24.459Z,69.30
2018-08-31T06:18:52.635Z,68.25
2018-08-31T06:21:20.895Z,68.98
2018-08-31T06:23:49.087Z,68.61
2018-08-31T06:26:17.296Z,68.30
2018-08-31T06:28:45.558Z,68.40
2018-08-31T06:31:13.784Z,68.26
2018-08-31T06:33:41.972Z,69.42
2018-08-31T06:36:10.143Z,67.84
2018-08-31T06:38:38.435Z,68.76
2018-08-31T06:41:06.635Z,67.98
2018-08-31T06:43:34.832Z,68.44
2018-08-31T06:46:03.050Z,68.72
2018-08-31T06:48:31.257Z,68.12
2018-08-31T06:50:59.451Z,67.95
2018-08-31T06:53:27.632Z,67.51
2018-08-31T06:55:55.830Z,68.12
2018-08-31T06:58:24.019Z,68.15
2018-08-31T07:00:52.696Z,67.41
2018-08-31T07:03:20.925Z,68.47
2018-08-31T07:05:49.126Z,68.49
2018-08-31T07:08:17.282Z,67.06
2018-08-31T07:10:45.488Z,67.36
2018-08-31T07:13:13.727Z,67.83
2018-08-31T07:15:41.870Z,67.45
2018-08-31T07:18:10.067Z,67.31
2018-08-31T07:20:38.275Z,68.05
2018-08-31T07:23:06.534Z,67.07
2018-08-31T07:25:34.727Z,67.23
2018-08-31T07:28:02.910Z,67.73
2018-08-31T07:30:31.114Z,68.09
2018-08-31T07:32:59.305Z,67.22
2018-08-31T07:35:27.606Z,67.73
2018-08-31T07:37:55.804Z,68.02
2018-08-31T07:40:24.017Z,67.83
2018-08-31T07:42:52.200Z,67.92
2018-08-31T07:45:20.387Z,67.51
2018-08-31T07:47:48.694Z,67.04
2018-08-31T07:50:16.840Z,67.85
2018-08-31T07:52:45.220Z,66.69
2018-08-31T07:55:13.421Z,66.77
2018-08-31T07:57:41.612Z,67.11
2018-08-31T08:00:09.822Z,66.55
2018-08-31T08:02:38.162Z,66.86
2018-08-31T08:05:06.365Z,66.04
2018-08-31T08:07:34.580Z,65.97
2018-08-31T08:10:02.846Z,65.87
2018-08-31T08:12:31.105Z,65.79
2018-08-31T08:14:59.384Z,65.08
2018-08-31T08:17:27.582Z,64.70
2018-08-31T08:19:55.755Z,65.01
2018-08-31T08:22:24.150Z,63.83
2018-08-31T08:24:52.447Z,64.27
2018-08-31T08:27:20.646Z,64.20
2018-08-31T08:29:48.842Z,63.40
2018-08-31T08:32:17.030Z,61.86
2018-08-31T08:34:45.630Z,62.56
2018-08-31T08:37:13.959Z,63.49
2018-08-31T08:39:42.256Z,61.40
2018-08-31T08:42:10.469Z,62.02
2018-08-31T08:44:38.606Z,62.21
2018-08-31T08:47:07.207Z,61.69
2018-08-31T08:49:35.466Z,61.63
2018-08-31T08:52:03.715Z,61.45
2018-08-31T08:54:31.907Z,61.54
2018-08-31T08:57:00.087Z,61.21
2018-08-31T08:59:28.306Z,60.25
2018-08-31T09:01:56.518Z,60.67
2018-08-31T09:04:24.754Z,59.57
2018-08-31T09:06:52.980Z,58.85
2018-08-31T09:09:21.156Z,59.76
2018-08-31T09:11:49.400Z,59.69
2018-08-31T09:14:17.563Z,59.36
2018-08-31T09:16:45.807Z,59.00
2018-08-31T09:19:13.989Z,58.07
2018-08-31T09:21:42.160Z,57.63
2018-08-31T09:24:10.359Z,57.42
2018-08-31T09:26:38.570Z,58.14
2018-08-31T09:29:06.788Z,56.83
2018-08-31T09:31:34.934Z,57.28
2018-08-31T09:34:03.406Z,58.00
2018-08-31T09:36:31.607Z,58.95
2018-08-31T09:38:59.875Z,57.79
2018-08-31T09:41:28.057Z,56.50
2018-08-31T09:43:56.246Z,57.58
2018-08-31T09:46:24.408Z,57.26
2018-08-31T09:48:52.647Z,56.35
2018-08-31T09:51:20.923Z,55.52
2018-08-31T09:53:49.141Z,56.74
2018-08-31T09:56:17.341Z,56.25
2018-08-31T09:58:45.543Z,56.04
2018-08-31T10:01:19.131Z,54.93
2018-08-31T10:03:47.348Z,56.66
2018-08-31T10:06:15.534Z,56.17
2018-08-31T10:08:43.735Z,55.49
2018-08-31T10:11:11.934Z,55.98
2018-08-31T10:13:40.203Z,55.92
2018-08-31T10:16:08.820Z,56.31
2018-08-31T10:18:37.079Z,54.56
2018-08-31T10:21:05.555Z,56.44
2018-08-31T10:23:33.755Z,56.00
2018-08-31T10:26:01.998Z,53.92
2018-08-31T10:28:30.244Z,53.41
2018-08-31T10:30:58.440Z,54.31
2018-08-31T10:33:26.652Z,53.92
2018-08-31T10:35:54.819Z,53.46
2018-08-31T10:38:23.071Z,53.44
2018-08-31T10:40:51.325Z,53.00
2018-08-31T10:43:19.547Z,53.03
2018-08-31T10:45:47.775Z,53.99
2018-08-31T10:48:16.043Z,52.63
2018-08-31T10:50:44.306Z,52.75
2018-08-31T10:53:12.564Z,50.27
2018-08-31T10:55:40.780Z,50.91
2018-08-31T10:58:09.095Z,49.43
2018-08-31T11:00:37.327Z,50.35
2018-08-31T11:03:05.605Z,49.53
2018-08-31T11:05:33.815Z,48.48
2018-08-31T11:08:02.022Z,48.22
2018-08-31T11:10:30.217Z,47.58
2018-08-31T11:12:58.419Z,47.43
2018-08-31T11:15:26.627Z,46.74
2018-08-31T11:17:54.940Z,45.21
2018-08-31T11:20:23.146Z,45.91
2018-08-31T11:22:51.358Z,45.93
2018-08-31T11:25:19.643Z,44.82
2018-08-31T11:27:47.935Z,45.35
2018-08-31T11:30:16.198Z,45.06
2018-08-31T11:32:44.592Z,46.34
2018-08-31T11:35:12.824Z,44.99
2018-08-31T11:37:41.060Z,45.20
2018-08-31T11:40:09.287Z,46.01
2018-08-31T11:42:37.531Z,44.53
2018-08-31T11:45:06.087Z,44.74
2018-08-31T11:47:34.275Z,46.28
2018-08-31T11:50:02.488Z,46.21
2018-08-31T11:52:30.793Z,45.82
2018-08-31T11:54:59.349Z,45.08
2018-08-31T11:57:27.607Z,45.46
2018-08-31T11:59:55.901Z,43.60
2018-08-31T12:02:24.116Z,43.86
2018-08-31T12:04:52.323Z,42.52
2018-08-31T12:07:20.554Z,44.67
2018-08-31T12:09:48.875Z,44.94
2018-08-31T12:12:17.126Z,45.30
2018-08-31T12:14:45.439Z,45.66
2018-08-31T12:17:13.657Z,46.37
2018-08-31T12:19:41.983Z,46.12
2018-08-31T12:22:10.256Z,46.66
2018-08-31T12:24:38.769Z,46.75
2018-08-31T12:27:07.022Z,47.46
2018-08-31T12:29:35.241Z,48.77
2018-08-31T12:32:21.464Z,45.99
2018-08-31T12:34:49.643Z,47.49
2018-08-31T12:37:18.162Z,48.26
2018-08-31T12:39:46.382Z,46.88
2018-08-31T12:42:14.743Z,47.09
2018-08-31T12:44:43.020Z,45.48
2018-08-31T12:47:11.298Z,47.71
2018-08-31T12:49:39.542Z,47.71
2018-08-31T12:52:07.730Z,47.10
2018-08-31T12:54:36.115Z,48.29
2018-08-31T12:57:04.642Z,46.25
2018-08-31T12:59:32.847Z,46.97
2018-08-31T13:02:01.041Z,46.68
2018-08-31T13:04:29.401Z,46.82
2018-08-31T13:06:57.789Z,45.42
2018-08-31T13:09:26.023Z,45.30
2018-08-31T13:11:54.234Z,45.00
2018-08-31T13:14:22.429Z,43.83
2018-08-31T13:16:50.663Z,43.64
2018-08-31T13:19:18.883Z,41.16
2018-08-31T13:21:47.130Z,43.08
2018-08-31T13:24:15.331Z,44.18
2018-08-31T13:26:43.594Z,42.47
2018-08-31T13:29:11.765Z,42.33
2018-08-31T13:31:39.994Z,40.83
2018-08-31T13:34:08.226Z,41.58
2018-08-31T13:36:36.476Z,40.70
2018-08-31T13:39:06.266Z,40.97
2018-08-31T13:41:34.451Z,41.89
2018-08-31T13:44:02.736Z,41.80
2018-08-31T13:46:30.943Z,41.48
2018-08-31T13:48:59.134Z,41.06
2018-08-31T13:51:27.318Z,41.07
2018-08-31T13:53:55.518Z,41.84
2018-08-31T13:56:23.882Z,41.16
2018-08-31T13:58:52.156Z,41.89
2018-08-31T14:01:20.373Z,40.57
2018-08-31T14:03:48.649Z,42.17
2018-08-31T14:06:16.833Z,38.76
2018-08-31T14:08:45.051Z,39.19
2018-08-31T14:11:13.289Z,37.79
2018-08-31T14:13:41.507Z,37.87
2018-08-31T14:16:09.773Z,37.86
2018-08-31T14:18:38.111Z,37.98
2018-08-31T14:21:06.434Z,39.36
2018-08-31T14:23:34.585Z,38.00
2018-08-31T14:26:02.843Z,38.93
2018-08-31T14:28:31.048Z,39.34
2018-08-31T14:30:59.288Z,38.03
2018-08-31T14:33:27.483Z,38.61
2018-08-31T14:35:55.833Z,38.27
2018-08-31T14:38:24.266Z,39.53
2018-08-31T14:40:52.595Z,38.44
2018-08-31T14:43:20.800Z,39.37
2018-08-31T14:45:49.112Z,39.81
2018-08-31T14:48:17.501Z,40.96
2018-08-31T14:50:45.784Z,40.92
2018-08-31T14:53:14.119Z,41.11
2018-08-31T14:55:42.508Z,42.74
2018-08-31T14:58:10.708Z,41.25
2018-08-31T15:00:38.928Z,42.52
2018-08-31T15:03:07.197Z,42.58
2018-08-31T15:05:35.435Z,42.97
2018-08-31T15:08:03.979Z,42.31
2018-08-31T15:10:32.194Z,41.71
2018-08-31T15:13:00.466Z,42.59
2018-08-31T15:15:28.730Z,42.39
2018-08-31T15:17:56.963Z,43.35
2018-08-31T15:20:25.179Z,41.92
2018-08-31T15:22:53.403Z,42.98
2018-08-31T15:25:21.747Z,44.19
2018-08-31T15:27:49.949Z,43.27
2018-08-31T15:30:18.199Z,41.32
2018-08-31T15:32:46.492Z,42.68
2018-08-31T15:35:14.779Z,43.06
2018-08-31T15:37:42.995Z,44.97
2018-08-31T15:40:11.323Z,43.22
2018-08-31T15:42:39.650Z,43.59
2018-08-31T15:45:07.964Z,44.35
2018-08-31T15:47:36.218Z,44.03
2018-08-31T15:50:04.471Z,43.10
2018-08-31T15:52:32.671Z,44.03
2018-08-31T15:55:00.932Z,44.09
2018-08-31T15:57:29.137Z,43.54
2018-08-31T15:59:57.474Z,44.38
2018-08-31T16:02:25.695Z,44.98
2018-08-31T16:04:53.883Z,43.55
2018-08-31T16:07:22.159Z,43.82
2018-08-31T16:09:50.435Z,45.28
2018-08-31T16:12:18.807Z,44.36
2018-08-31T16:14:46.998Z,44.04
2018-08-31T16:17:15.331Z,43.50
2018-08-31T16:19:43.670Z,44.85
2018-08-31T16:22:11.926Z,43.64
2018-08-31T16:24:40.127Z,43.43
2018-08-31T16:27:08.387Z,43.29
2018-08-31T16:29:36.586Z,44.32
2018-08-31T16:32:04.824Z,44.50
2018-08-31T16:34:33.031Z,43.85
2018-08-31T16:37:01.378Z,44.29
2018-08-31T16:39:29.631Z,43.68
2018-08-31T16:41:57.832Z,43.25
2018-08-31T16:44:26.095Z,43.72
2018-08-31T16:46:54.426Z,43.75
2018-08-31T16:49:22.662Z,42.98
2018-08-31T16:51:50.858Z,42.95
2018-08-31T16:54:19.107Z,43.03
2018-08-31T16:56:47.363Z,44.45
2018-08-31T16:59:15.555Z,43.40
2018-08-31T17:01:43.754Z,44.32
2018-08-31T17:04:11.979Z,44.10
2018-08-31T17:06:40.469Z,44.02
2018-08-31T17:09:10.623Z,44.21
2018-08-31T17:11:38.846Z,44.54
2018-08-31T17:14:07.084Z,43.96
2018-08-31T17:16:35.321Z,44.44
2018-08-31T17:19:03.611Z,43.87
2018-08-31T17:21:31.851Z,44.03
2018-08-31T17:24:00.369Z,45.28
2018-08-31T17:26:33.951Z,45.39
2018-08-31T17:29:07.562Z,46.92
2018-08-31T17:31:41.191Z,46.35
2018-08-31T17:34:14.910Z,45.76
2018-08-31T17:36:48.310Z,45.77
2018-08-31T17:39:16.526Z,44.41
2018-08-31T17:41:44.771Z,45.08
2018-08-31T17:44:12.984Z,46.16
2018-08-31T17:46:41.622Z,45.90
2018-08-31T17:49:09.800Z,46.64
2018-08-31T17:51:38.036Z,45.15
2018-08-31T17:54:06.335Z,46.74
2018-08-31T17:56:34.578Z,47.15
2018-08-31T17:59:02.909Z,46.92
2018-08-31T18:01:31.108Z,46.96
2018-08-31T18:03:59.357Z,47.83
2018-08-31T18:06:27.490Z,46.78
2018-08-31T18:08:55.723Z,46.90
2018-08-31T18:11:23.923Z,47.59
2018-08-31T18:13:52.099Z,48.45
2018-08-31T18:16:20.355Z,48.11
2018-08-31T18:18:48.535Z,48.68
2018-08-31T18:21:17.477Z,48.88
2018-08-31T18:23:45.698Z,47.81
2018-08-31T18:26:13.991Z,47.49
2018-08-31T18:28:42.258Z,48.76
2018-08-31T18:31:10.530Z,48.53
2018-08-31T18:33:38.704Z,49.27
2018-08-31T18:36:06.982Z,50.46
2018-08-31T18:38:35.172Z,49.93
2018-08-31T18:41:03.413Z,50.31
2018-08-31T18:43:31.717Z,51.08
2018-08-31T18:45:59.983Z,50.96
2018-08-31T18:48:28.248Z,50.20
2018-08-31T18:50:56.436Z,51.01
2018-08-31T18:53:24.647Z,50.67
2018-08-31T18:55:52.838Z,50.93
2018-08-31T18:58:21.078Z,51.97
2018-08-31T19:00:49.291Z,51.45
2018-08-31T19:03:17.486Z,52.67
2018-08-31T19:05:45.747Z,52.74
2018-08-31T19:08:14.035Z,52.67
2018-08-31T19:10:42.294Z,52.69
2018-08-31T19:13:10.499Z,53.38
2018-08-31T19:15:38.732Z,53.49
2018-08-31T19:18:07.148Z,52.94
2018-08-31T19:20:35.334Z,53.76
2018-08-31T19:23:03.540Z,53.41
2018-08-31T19:25:31.884Z,53.99
2018-08-31T19:28:00.150Z,54.07
2018-08-31T19:30:28.368Z,53.89
2018-08-31T19:32:56.558Z,54.28
2018-08-31T19:35:24.763Z,54.33
2018-08-31T19:37:52.930Z,55.08
2018-08-31T19:40:21.095Z,54.87
2018-08-31T19:42:49.287Z,54.05
2018-08-31T19:45:17.810Z,55.01
2018-08-31T19:47:46.066Z,54.65
2018-08-31T19:50:14.334Z,54.91
2018-08-31T19:52:42.536Z,55.29
2018-08-31T19:55:10.919Z,54.99
2018-08-31T19:57:39.104Z,55.61
2018-08-31T20:00:07.464Z,55.24
2018-08-31T20:02:36.387Z,54.80
2018-08-31T20:05:04.620Z,54.98
2018-08-31T20:07:32.790Z,55.35
2018-08-31T20:10:01.015Z,56.33
2018-08-31T20:12:29.288Z,56.46
2018-08-31T20:14:59.328Z,56.44
2018-08-31T20:17:27.600Z,56.55
2018-08-31T20:19:55.842Z,55.67
2018-08-31T20:22:25.035Z,56.36
2018-08-31T20:24:53.294Z,55.95
2018-08-31T20:27:21.579Z,55.75
2018-08-31T20:29:49.855Z,56.47
2018-08-31T20:32:18.115Z,56.63
2018-08-31T20:34:46.504Z,56.54
2018-08-31T20:37:14.750Z,56.50
2018-08-31T20:39:43.115Z,56.89
2018-08-31T20:42:11.335Z,57.22
2018-08-31T20:44:39.556Z,56.82
2018-08-31T20:47:08.387Z,56.70
2018-08-31T20:49:37.006Z,56.20
2018-08-31T20:52:05.594Z,56.40
2018-08-31T20:54:33.878Z,57.21
2018-08-31T20:57:02.261Z,57.17
2018-08-31T20:59:30.575Z,56.55
2018-08-31T21:01:58.827Z,57.02
2018-08-31T21:04:27.018Z,56.86
2018-08-31T21:06:55.242Z,57.29
2018-08-31T21:09:23.475Z,57.25
2018-08-31T21:11:51.710Z,57.46
2018-08-31T21:14:19.919Z,56.89
2018-08-31T21:16:48.171Z,57.52
2018-08-31T21:19:16.424Z,57.69
2018-08-31T21:21:44.727Z,57.07
2018-08-31T21:24:12.896Z,57.64
2018-08-31T21:26:41.098Z,57.20
2018-08-31T21:29:11.458Z,56.79
2018-08-31T21:31:39.676Z,56.59
2018-08-31T21:34:08.275Z,57.43
2018-08-31T21:36:36.523Z,57.94
2018-08-31T21:39:06.012Z,57.52
2018-08-31T21:41:34.222Z,57.85
2018-08-31T21:44:02.415Z,58.45
2018-08-31T21:46:30.662Z,57.49
2018-08-31T21:48:58.858Z,57.54
2018-08-31T21:51:27.055Z,58.49
2018-08-31T21:53:55.477Z,57.98
2018-08-31T21:56:23.775Z,58.47
2018-08-31T21:58:52.087Z,58.38
2018-08-31T22:01:25.740Z,58.79
2018-08-31T22:03:53.959Z,58.72
2018-08-31T22:06:22.255Z,59.10
2018-08-31T22:08:50.427Z,58.25
2018-08-31T22:11:18.680Z,59.11
2018-08-31T22:13:46.852Z,59.48
2018-08-31T22:16:15.074Z,59.60
2018-08-31T22:18:43.371Z,59.77
2018-08-31T22:21:11.573Z,59.73
2018-08-31T22:23:39.751Z,59.84
2018-08-31T22:26:07.938Z,59.00
2018-08-31T22:28:36.271Z,59.10
2018-08-31T22:31:04.530Z,58.98
2018-08-31T22:33:32.716Z,59.33
2018-08-31T22:36:00.910Z,59.23
2018-08-31T22:38:29.123Z,59.60
2018-08-31T22:40:57.315Z,59.40
2018-08-31T22:43:30.901Z,60.39
2018-08-31T22:45:59.158Z,60.14
2018-08-31T22:48:27.367Z,60.27
2018-08-31T22:50:55.611Z,60.31
2018-08-31T22:53:23.846Z,60.22
2018-08-31T22:55:52.068Z,61.00
2018-08-31T22:58:20.335Z,61.59
2018-08-31T23:00:48.662Z,61.56
2018-08-31T23:03:16.968Z,60.39
2018-08-31T23:05:45.262Z,60.86
2018-08-31T23:08:13.455Z,60.44
2018-08-31T23:10:41.727Z,60.72
2018-08-31T23:13:09.939Z,61.04
2018-08-31T23:15:38.256Z,60.79
2018-08-31T23:18:07.296Z,61.63
2018-08-31T23:20:35.703Z,60.90
2018-08-31T23:23:09.308Z,62.16
2018-08-31T23:25:42.758Z,61.67
2018-08-31T23:28:10.963Z,61.02
2018-08-31T23:30:39.276Z,61.99
